Time;durP1;ratioP1;P1;durP2;ratioP2;P2;SDS_P1;SDS_P2;PMS_P1;PMS_P2;Temp;Humidity;BMP_temperature;BMP_pressure;BME280_temperature;BME280_humidity;BME280_pressure;Samples;Min_cycle;Max_cycle;Signal;HPM_P1;HPM_P2
2022/03/20 00:02:21;;;;;;;8.27;2.08;;;22.10;91.90;;;;;;5087868;28;20365;-83
2022/03/20 00:04:48;;;;;;;12.05;2.30;;;22.30;91.70;;;;;;5087323;28;20449;-86
2022/03/20 00:07:15;;;;;;;8.45;2.20;;;22.50;90.90;;;;;;5087656;28;20806;-85
2022/03/20 00:09:44;;;;;;;8.40;2.10;;;22.60;90.10;;;;;;5086700;28;20416;-84
2022/03/20 00:12:11;;;;;;;8.18;1.98;;;22.60;90.00;;;;;;5087132;28;20388;-83
2022/03/20 00:14:37;;;;;;;8.23;2.10;;;22.90;89.30;;;;;;5087055;28;20467;-83
2022/03/20 00:17:05;;;;;;;6.75;2.00;;;23.10;87.80;;;;;;5087206;28;20760;-83
2022/03/20 00:19:32;;;;;;;9.07;2.10;;;22.90;85.80;;;;;;5087308;28;20384;-82
2022/03/20 00:22:00;;;;;;;9.65;2.50;;;22.80;86.80;;;;;;5087238;28;20377;-83
2022/03/20 00:24:27;;;;;;;7.75;2.00;;;22.60;85.70;;;;;;5088081;28;20376;-81
2022/03/20 00:26:57;;;;;;;7.15;1.80;;;22.60;85.60;;;;;;5088065;28;20403;-79
2022/03/20 00:29:25;;;;;;;9.75;2.40;;;22.60;85.60;;;;;;5087477;28;20851;-78
2022/03/20 00:31:53;;;;;;;168.53;17.67;;;22.60;86.80;;;;;;5087344;28;20384;-81
2022/03/20 00:34:20;;;;;;;10.43;2.15;;;22.80;88.20;;;;;;5086886;28;20433;-79
2022/03/20 00:36:47;;;;;;;8.38;1.85;;;23.00;88.70;;;;;;5087023;28;20372;-83
2022/03/20 00:39:14;;;;;;;8.38;2.05;;;23.10;85.20;;;;;;5085399;28;20411;-80
2022/03/20 00:41:41;;;;;;;8.10;2.03;;;23.10;83.90;;;;;;5086007;28;20886;-86
2022/03/20 00:44:08;;;;;;;13.50;3.97;;;23.50;81.40;;;;;;5086760;28;20364;-80
2022/03/20 00:46:35;;;;;;;5.88;1.65;;;23.40;84.00;;;;;;5086373;28;20403;-87
2022/03/20 00:49:02;;;;;;;6.80;1.73;;;23.60;81.80;;;;;;5086220;28;20384;-79
2022/03/20 00:51:29;;;;;;;7.63;1.90;;;23.90;82.00;;;;;;5087087;28;20394;-85
2022/03/20 00:53:55;;;;;;;11.50;2.50;;;24.00;81.10;;;;;;5086642;28;20387;-83
2022/03/20 00:56:23;;;;;;;9.65;2.20;;;24.10;82.10;;;;;;5087018;28;20387;-86
2022/03/20 00:58:50;;;;;;;5.00;1.60;;;24.10;81.10;;;;;;5086908;28;20361;-85
2022/03/20 01:01:17;;;;;;;6.28;1.73;;;24.20;79.10;;;;;;5086776;28;20404;-84
2022/03/20 01:03:44;;;;;;;6.82;2.00;;;24.30;78.30;;;;;;5086636;28;20419;-84
2022/03/20 01:06:11;;;;;;;7.97;2.00;;;24.60;75.70;;;;;;5086668;28;20924;-86
2022/03/20 01:08:39;;;;;;;7.60;2.00;;;24.70;77.20;;;;;;5086842;28;20438;-83
2022/03/20 01:11:08;;;;;;;7.05;1.95;;;24.70;73.60;;;;;;5087608;28;20387;-84
2022/03/20 01:13:36;;;;;;;8.50;2.10;;;24.50;76.50;;;;;;5088036;28;20372;-86
2022/03/20 01:16:04;;;;;;;6.45;2.20;;;24.70;74.30;;;;;;5088332;28;20394;-87
2022/03/20 01:18:30;;;;;;;18.05;3.30;;;24.90;73.00;;;;;;5087412;28;20793;-86
2022/03/20 01:20:58;;;;;;;5.80;2.13;;;25.00;71.30;;;;;;5098624;28;20400;-85
2022/03/20 01:23:25;;;;;;;4.60;1.67;;;25.20;73.20;;;;;;5093897;28;20391;-87
2022/03/20 01:25:52;;;;;;;8.20;1.83;;;25.50;70.70;;;;;;5096444;28;20411;-84
2022/03/20 01:28:20;;;;;;;7.17;2.10;;;25.70;70.20;;;;;;5092854;28;20463;-84
2022/03/20 01:30:48;;;;;;;7.10;2.38;;;25.80;67.90;;;;;;5086988;28;20391;-88
2022/03/20 01:33:16;;;;;;;8.85;2.63;;;26.10;67.40;;;;;;5086951;28;20419;-82
2022/03/20 01:35:43;;;;;;;6.97;2.03;;;26.20;68.20;;;;;;5086891;28;20377;-83
2022/03/20 01:38:10;;;;;;;7.22;1.80;;;26.40;67.60;;;;;;5087039;28;20372;-85
2022/03/20 01:40:38;;;;;;;6.95;2.10;;;26.20;66.20;;;;;;5087874;28;20411;-84
2022/03/20 01:43:05;;;;;;;7.28;1.60;;;26.30;68.80;;;;;;5086910;28;20372;-90
2022/03/20 01:45:32;;;;;;;6.07;1.70;;;26.70;64.90;;;;;;5088044;28;20456;-87
2022/03/20 01:47:59;;;;;;;5.05;1.70;;;27.00;65.20;;;;;;5089073;28;20779;-80
2022/03/20 01:50:27;;;;;;;7.30;1.83;;;26.90;64.60;;;;;;5090240;28;20377;-85
2022/03/20 01:52:56;;;;;;;7.68;1.90;;;27.10;62.70;;;;;;5090007;28;20424;-87
2022/03/20 01:55:24;;;;;;;5.90;1.77;;;27.00;63.70;;;;;;5090139;28;20387;-87
2022/03/20 01:57:54;;;;;;;6.85;2.08;;;26.90;61.70;;;;;;5089828;28;20374;-85
2022/03/20 02:00:24;;;;;;;7.63;1.90;;;26.60;63.10;;;;;;5089805;28;21229;-83
2022/03/20 02:02:52;;;;;;;7.35;1.80;;;27.00;63.10;;;;;;5089766;28;20415;-80
2022/03/20 02:05:21;;;;;;;6.80;1.83;;;27.30;63.20;;;;;;5089748;28;20387;-87
2022/03/20 02:07:49;;;;;;;6.50;1.73;;;27.80;61.80;;;;;;5090108;28;20852;-80
2022/03/20 02:10:16;;;;;;;6.13;1.98;;;28.60;59.80;;;;;;5089178;28;20380;-82
2022/03/20 02:12:44;;;;;;;5.47;1.70;;;29.30;59.60;;;;;;5090014;28;20446;-79
2022/03/20 02:15:13;;;;;;;6.25;1.83;;;29.30;58.20;;;;;;5090849;28;20377;-90
2022/03/20 02:17:44;;;;;;;4.13;1.60;;;28.70;58.30;;;;;;5091068;28;20421;-90
2022/03/20 02:20:12;;;;;;;4.75;1.90;;;29.30;59.10;;;;;;5091124;28;20482;-81
2022/03/20 02:22:44;;;;;;;5.38;1.50;;;29.70;57.00;;;;;;5088382;28;20432;-86
2022/03/20 02:25:15;;;;;;;5.10;1.83;;;30.20;54.80;;;;;;5089249;28;20388;-88
2022/03/20 02:27:44;;;;;;;6.38;1.83;;;31.10;53.90;;;;;;5090267;28;20439;-86
2022/03/20 02:30:15;;;;;;;5.05;1.80;;;31.40;51.90;;;;;;5090101;28;20411;-91
2022/03/20 02:32:45;;;;;;;4.28;1.70;;;31.00;52.30;;;;;;5090463;28;20453;-87
2022/03/20 02:35:17;;;;;;;6.20;1.80;;;31.10;52.00;;;;;;5093092;28;20369;-84
2022/03/20 02:37:51;;;;;;;6.57;1.80;;;31.30;51.20;;;;;;5091517;28;20381;-85
2022/03/20 02:40:20;;;;;;;4.57;1.63;;;30.00;54.80;;;;;;5089416;28;20767;-84
2022/03/20 02:42:49;;;;;;;5.18;1.70;;;30.30;54.70;;;;;;5089753;28;20913;-87
2022/03/20 02:45:20;;;;;;;4.85;1.58;;;30.50;55.40;;;;;;5090046;28;20506;-86
2022/03/20 02:47:49;;;;;;;6.97;1.70;;;31.20;53.30;;;;;;5087687;28;20381;-83
2022/03/20 02:50:24;;;;;;;5.28;1.60;;;32.10;50.30;;;;;;5089258;28;20383;-89
2022/03/20 02:52:53;;;;;;;4.68;1.73;;;32.40;51.30;;;;;;5089347;28;20364;-82
2022/03/20 02:55:23;;;;;;;4.63;1.65;;;32.40;51.20;;;;;;5089221;28;20867;-80
2022/03/20 02:57:51;;;;;;;5.82;1.98;;;33.10;50.40;;;;;;5076419;28;20390;-82
2022/03/20 03:00:25;;;;;;;8.65;1.83;;;33.10;50.80;;;;;;5068530;28;20393;-87
2022/03/20 03:02:54;;;;;;;5.87;1.70;;;33.40;49.00;;;;;;5068930;28;20382;-81
2022/03/20 03:05:24;;;;;;;6.03;1.90;;;32.70;48.20;;;;;;5071189;28;20384;-87
2022/03/20 03:11:01;;;;;;;5.05;1.77;;;33.00;47.60;;;;;;5089283;28;20363;-89
2022/03/20 03:13:28;;;;;;;5.07;1.85;;;33.40;48.20;;;;;;5086583;28;20411;-85
2022/03/20 03:15:56;;;;;;;6.00;1.63;;;33.60;48.80;;;;;;5089138;28;20368;-89
2022/03/20 03:18:24;;;;;;;5.38;1.77;;;33.60;47.50;;;;;;5081711;28;20405;-81
2022/03/20 03:20:51;;;;;;;6.00;1.70;;;33.00;49.00;;;;;;5052330;28;20576;-87
2022/03/20 03:23:20;;;;;;;3.95;1.70;;;31.90;49.50;;;;;;5056851;28;20462;-89
2022/03/20 03:25:47;;;;;;;5.72;1.75;;;32.00;50.90;;;;;;5055349;28;20387;-83
2022/03/20 03:28:14;;;;;;;5.38;1.77;;;32.10;49.20;;;;;;5053703;28;20384;-83
2022/03/20 03:30:46;;;;;;;6.47;1.75;;;32.10;48.40;;;;;;5063525;28;20390;-88
2022/03/20 03:33:15;;;;;;;5.68;1.60;;;32.60;49.80;;;;;;5064650;28;20388;-88
2022/03/20 03:35:46;;;;;;;4.72;1.77;;;32.60;49.60;;;;;;5058147;28;20786;-84
2022/03/20 03:38:16;;;;;;;7.87;1.93;;;33.10;48.70;;;;;;5082426;28;20378;-83
2022/03/20 03:40:45;;;;;;;9.65;2.10;;;33.50;47.60;;;;;;5084387;28;20418;-88
2022/03/20 03:43:23;;;;;;;4.22;1.60;;;32.90;48.10;;;;;;5074981;28;20369;-85
2022/03/20 03:45:52;;;;;;;5.70;1.70;;;32.90;47.70;;;;;;5088642;28;20882;-88
2022/03/20 03:48:19;;;;;;;4.50;1.73;;;32.80;47.70;;;;;;5107964;28;20469;-89
2022/03/20 03:50:48;;;;;;;4.80;1.70;;;32.70;48.50;;;;;;5108172;28;20374;-83
2022/03/20 03:53:15;;;;;;;4.40;1.67;;;32.50;49.50;;;;;;5105955;28;20378;-86
2022/03/20 03:55:43;;;;;;;4.20;1.80;;;32.60;48.50;;;;;;5107116;28;20451;-85
2022/03/20 03:58:12;;;;;;;3.70;1.55;;;32.50;49.20;;;;;;5108061;28;20427;-85
2022/03/20 04:00:40;;;;;;;5.93;1.67;;;32.90;48.40;;;;;;5096568;28;20420;-84
2022/03/20 04:03:07;;;;;;;6.90;1.60;;;32.60;48.30;;;;;;5086910;28;20378;-92
2022/03/20 04:05:34;;;;;;;5.95;1.58;;;32.40;48.60;;;;;;5088029;28;20383;-88
2022/03/20 04:08:01;;;;;;;5.78;1.77;;;32.30;50.20;;;;;;5087631;28;20384;-78
2022/03/20 04:10:29;;;;;;;6.32;1.88;;;32.00;49.10;;;;;;5087410;28;20384;-84
2022/03/20 04:12:56;;;;;;;8.77;1.92;;;32.70;49.00;;;;;;5088150;28;20379;-88
2022/03/20 04:15:24;;;;;;;3.70;1.58;;;33.40;47.60;;;;;;5087703;28;20373;-86
2022/03/20 04:17:52;;;;;;;5.22;1.70;;;34.00;46.70;;;;;;5087118;28;20387;-86
2022/03/20 04:20:20;;;;;;;9.00;1.60;;;34.60;46.70;;;;;;5087358;28;20534;-85
2022/03/20 04:25:33;;;;;;;6.15;2.00;;;33.70;46.40;;;;;;5087664;28;20429;-83
2022/03/20 04:28:00;;;;;;;5.85;1.70;;;33.90;46.50;;;;;;5087147;28;20371;-84
2022/03/20 04:30:28;;;;;;;4.95;1.70;;;34.20;47.00;;;;;;5087471;28;20388;-85
2022/03/20 04:32:58;;;;;;;4.93;1.90;;;34.30;46.20;;;;;;5087311;28;20364;-84
2022/03/20 04:35:25;;;;;;;4.45;1.65;;;35.00;45.50;;;;;;5087085;28;20855;-84
2022/03/20 04:37:54;;;;;;;3.60;1.67;;;35.90;44.60;;;;;;5086614;28;20380;-82
2022/03/20 04:40:22;;;;;;;9.18;2.38;;;35.30;45.50;;;;;;5088242;28;20416;-88
2022/03/20 04:42:49;;;;;;;3.85;1.55;;;35.10;44.50;;;;;;5087043;28;20445;-82
2022/03/20 04:45:17;;;;;;;5.53;1.70;;;35.40;44.90;;;;;;5087175;28;20395;-80
2022/03/20 04:58:46;;;;;;;4.75;1.77;;;36.60;42.90;;;;;;5086051;28;20387;-87
2022/03/20 05:01:14;;;;;;;5.65;1.70;;;37.00;42.40;;;;;;5087031;28;20461;-79
2022/03/20 05:03:41;;;;;;;5.95;1.73;;;36.70;42.60;;;;;;5087187;28;20383;-83
2022/03/20 05:06:08;;;;;;;4.30;1.50;;;36.00;44.50;;;;;;5086835;28;20386;-80
2022/03/20 05:08:39;;;;;;;5.22;1.65;;;35.90;43.20;;;;;;5086788;28;20379;-85
2022/03/20 05:13:51;;;;;;;5.03;1.55;;;35.80;43.00;;;;;;5086359;28;20419;-86
2022/03/20 05:16:19;;;;;;;5.43;1.80;;;36.20;42.60;;;;;;5087504;28;20423;-79
2022/03/20 05:18:46;;;;;;;4.30;1.73;;;36.10;42.40;;;;;;5085899;28;20416;-79
2022/03/20 05:21:13;;;;;;;5.15;1.83;;;35.90;42.80;;;;;;5086824;28;20968;-82
2022/03/20 05:23:40;;;;;;;4.43;1.80;;;35.70;43.30;;;;;;5090675;28;20379;-86
2022/03/20 05:26:07;;;;;;;4.63;1.70;;;35.50;44.00;;;;;;5087372;28;20383;-87
2022/03/20 05:28:34;;;;;;;5.20;1.63;;;35.50;43.80;;;;;;5090989;28;20378;-86
2022/03/20 05:31:02;;;;;;;10.00;2.22;;;35.50;44.60;;;;;;5090447;28;20433;-87
2022/03/20 05:33:31;;;;;;;5.70;1.92;;;35.50;44.00;;;;;;5088772;28;20368;-79
2022/03/20 05:35:58;;;;;;;7.68;2.53;;;35.40;44.30;;;;;;5090237;28;20895;-84
2022/03/20 05:38:25;;;;;;;7.38;2.30;;;35.40;44.90;;;;;;5089945;28;20868;-84
2022/03/20 05:41:43;;;;;;;5.97;2.05;;;35.30;45.60;;;;;;5088821;28;20412;-86
2022/03/20 05:43:39;;;;;;;6.13;1.90;;;35.30;46.30;;;;;;5090194;28;20380;-83
2022/03/20 05:46:06;;;;;;;6.38;2.50;;;34.80;47.40;;;;;;5090596;28;20376;-79
2022/03/20 05:48:35;;;;;;;8.82;2.40;;;34.60;49.10;;;;;;5090064;28;20391;-86
2022/03/20 05:51:04;;;;;;;7.63;2.42;;;34.70;48.40;;;;;;5090296;28;20376;-88
2022/03/20 05:53:31;;;;;;;8.38;2.50;;;34.20;48.90;;;;;;5091647;28;20398;-84
2022/03/20 05:58:43;;;;;;;7.35;2.33;;;33.50;50.50;;;;;;5092210;28;20422;-86
2022/03/20 06:01:10;;;;;;;8.67;2.30;;;33.20;50.90;;;;;;5093662;28;20880;-88
2022/03/20 06:03:37;;;;;;;8.25;2.60;;;33.50;50.40;;;;;;5094549;28;20769;-84
2022/03/20 06:06:07;;;;;;;9.43;2.60;;;33.50;50.60;;;;;;5095373;28;20380;-87
2022/03/20 06:08:35;;;;;;;7.47;2.60;;;33.50;50.30;;;;;;5092317;28;20388;-85
2022/03/20 06:11:02;;;;;;;6.57;2.50;;;33.10;51.60;;;;;;5091263;28;20878;-83
2022/03/20 06:13:31;;;;;;;8.60;2.40;;;33.30;50.90;;;;;;5091813;28;21365;-87
2022/03/20 06:15:58;;;;;;;6.95;2.40;;;33.20;50.80;;;;;;5091375;28;20400;-79
2022/03/20 06:18:28;;;;;;;7.73;2.47;;;32.80;51.20;;;;;;5090379;28;20375;-86
2022/03/20 06:20:57;;;;;;;10.27;2.80;;;32.60;51.70;;;;;;5090495;28;20423;-89
2022/03/20 06:23:24;;;;;;;11.05;3.38;;;32.40;52.70;;;;;;5070346;28;20431;-79
2022/03/20 06:25:52;;;;;;;11.13;2.92;;;32.00;53.10;;;;;;5069551;28;20385;-80
2022/03/20 06:28:19;;;;;;;9.15;2.83;;;31.90;54.00;;;;;;5070613;28;20959;-88
2022/03/20 06:30:47;;;;;;;7.70;2.40;;;32.10;53.70;;;;;;5069595;28;20465;-82
2022/03/20 06:33:15;;;;;;;10.47;2.50;;;32.00;54.10;;;;;;5083395;28;20461;-79
2022/03/20 06:35:42;;;;;;;8.10;2.50;;;32.00;53.60;;;;;;5089504;28;20573;-88
2022/03/20 06:38:09;;;;;;;7.53;2.27;;;31.50;54.50;;;;;;5089017;28;20380;-89
2022/03/20 06:40:36;;;;;;;8.40;2.60;;;31.10;56.10;;;;;;5088313;28;20487;-83
2022/03/20 06:43:04;;;;;;;6.93;2.38;;;31.10;55.90;;;;;;5070069;28;20413;-88
2022/03/20 06:45:31;;;;;;;7.68;2.50;;;31.10;56.00;;;;;;5069053;28;20397;-86
2022/03/20 06:47:59;;;;;;;8.98;2.55;;;31.00;56.20;;;;;;5073140;28;20444;-82
2022/03/20 06:50:27;;;;;;;7.43;2.30;;;30.90;56.70;;;;;;5071594;28;20483;-81
2022/03/20 06:52:54;;;;;;;7.68;2.40;;;31.00;56.40;;;;;;5050999;28;20374;-90
2022/03/20 06:55:22;;;;;;;12.43;2.70;;;30.80;57.40;;;;;;5068942;28;20374;-86
2022/03/20 06:57:49;;;;;;;10.02;2.70;;;30.90;57.10;;;;;;5070281;28;20439;-88
2022/03/20 07:00:16;;;;;;;6.38;2.25;;;30.60;57.40;;;;;;5069431;28;20433;-83
2022/03/20 07:02:43;;;;;;;9.77;2.55;;;30.90;57.40;;;;;;5072099;28;20382;-86
2022/03/20 07:05:11;;;;;;;8.15;2.53;;;30.60;57.90;;;;;;5049913;28;20386;-86
2022/03/20 07:07:40;;;;;;;8.30;2.45;;;30.20;58.90;;;;;;5069102;28;20476;-85
2022/03/20 07:10:08;;;;;;;9.55;2.67;;;30.10;59.40;;;;;;5068494;28;20750;-87
2022/03/20 07:12:35;;;;;;;6.88;2.60;;;29.90;59.60;;;;;;5069426;28;20918;-88
2022/03/20 07:15:02;;;;;;;7.90;2.30;;;29.30;60.90;;;;;;5069133;28;20385;-87
2022/03/20 07:17:29;;;;;;;8.88;2.75;;;28.90;62.00;;;;;;5068341;28;20392;-87
2022/03/20 07:19:58;;;;;;;7.95;2.30;;;28.80;62.40;;;;;;5068118;28;20410;-82
2022/03/20 07:22:26;;;;;;;9.57;2.65;;;29.00;62.80;;;;;;5068423;28;20381;-80
2022/03/20 07:24:53;;;;;;;10.98;2.55;;;29.00;62.40;;;;;;5068002;28;20893;-85
2022/03/20 07:30:07;;;;;;;9.45;2.67;;;28.40;63.90;;;;;;5086811;28;20371;-88
2022/03/20 07:32:35;;;;;;;9.63;2.90;;;28.10;64.70;;;;;;5067638;28;20374;-84
2022/03/20 07:35:02;;;;;;;10.40;2.92;;;27.70;66.10;;;;;;5068153;28;20727;-83
2022/03/20 07:37:29;;;;;;;11.10;2.90;;;27.40;67.20;;;;;;5068555;28;20382;-91
2022/03/20 07:39:56;;;;;;;7.43;2.58;;;27.00;68.80;;;;;;5080068;28;20471;-86
2022/03/20 07:42:26;;;;;;;10.40;2.45;;;26.60;70.20;;;;;;5087470;28;20811;-86
2022/03/20 07:44:53;;;;;;;9.98;2.70;;;26.20;71.80;;;;;;5088991;28;20376;-88
2022/03/20 07:47:22;;;;;;;10.50;2.95;;;25.50;74.50;;;;;;5088978;28;20890;-90
2022/03/20 07:49:50;;;;;;;11.20;2.60;;;25.00;77.70;;;;;;5099112;28;20384;-85
2022/03/20 07:52:18;;;;;;;7.88;2.50;;;24.50;81.90;;;;;;5104538;28;20449;-80
2022/03/20 07:54:46;;;;;;;9.45;2.70;;;24.20;85.30;;;;;;5101727;28;20384;-77
2022/03/20 07:57:13;;;;;;;9.07;2.85;;;23.90;90.00;;;;;;5100131;28;20885;-85
2022/03/20 07:59:42;;;;;;;11.55;2.40;;;23.70;92.30;;;;;;5100583;28;20385;-85
2022/03/20 08:02:16;;;;;;;13.65;2.83;;;23.50;94.60;;;;;;5094045;28;20395;-84
2022/03/20 08:04:46;;;;;;;9.45;2.53;;;23.30;96.20;;;;;;5096534;28;20372;-85
2022/03/20 08:07:13;;;;;;;10.90;2.50;;;23.20;98.00;;;;;;5094347;28;20384;-82
2022/03/20 08:09:40;;;;;;;13.57;2.80;;;23.00;99.50;;;;;;5095913;28;20364;-80
2022/03/20 08:12:12;;;;;;;11.10;2.67;;;22.90;99.90;;;;;;5096629;28;20403;-85
2022/03/20 08:14:41;;;;;;;10.77;2.50;;;22.70;99.90;;;;;;5095596;28;20423;-84
2022/03/20 08:17:09;;;;;;;13.02;2.97;;;22.60;99.90;;;;;;5094478;28;20399;-91
2022/03/20 08:19:40;;;;;;;9.13;2.67;;;22.40;99.90;;;;;;5092466;28;20396;-80
2022/03/20 08:22:09;;;;;;;12.75;2.50;;;22.40;99.90;;;;;;5090873;28;20377;-86
2022/03/20 08:24:39;;;;;;;8.83;2.70;;;22.30;99.90;;;;;;5095783;28;20768;-85
2022/03/20 08:27:07;;;;;;;12.00;2.70;;;22.20;99.90;;;;;;5091733;28;20381;-87
2022/03/20 08:29:34;;;;;;;10.57;2.65;;;22.10;99.90;;;;;;5033617;28;20415;-86
2022/03/20 08:32:03;;;;;;;12.48;2.60;;;22.00;99.90;;;;;;5053305;28;20372;-87
2022/03/20 08:34:31;;;;;;;11.40;2.65;;;22.40;99.90;;;;;;5051327;28;20389;-84
2022/03/20 08:36:58;;;;;;;13.15;2.67;;;21.90;99.90;;;;;;5051369;28;20382;-87
2022/03/20 08:39:25;;;;;;;11.25;2.65;;;21.80;99.90;;;;;;5042796;28;20462;-82
2022/03/20 08:41:53;;;;;;;11.82;2.67;;;21.80;99.90;;;;;;5012982;28;20492;-87
2022/03/20 08:44:25;;;;;;;12.35;2.65;;;21.80;99.90;;;;;;5000311;28;20404;-79
2022/03/20 08:46:53;;;;;;;12.07;2.60;;;21.70;99.90;;;;;;4997957;28;20403;-89
2022/03/20 08:49:21;;;;;;;11.00;2.40;;;21.70;99.90;;;;;;4997856;28;20381;-83
2022/03/20 08:51:51;;;;;;;12.02;2.33;;;21.70;99.90;;;;;;4999305;28;20909;-89
2022/03/20 08:54:21;;;;;;;9.02;2.20;;;21.60;99.90;;;;;;5014357;28;20994;-88
2022/03/20 08:56:48;;;;;;;9.70;2.20;;;21.60;99.90;;;;;;5000449;28;20397;-86
2022/03/20 08:59:17;;;;;;;10.48;2.40;;;21.50;99.90;;;;;;4997740;28;20384;-87
2022/03/20 09:01:47;;;;;;;10.80;2.20;;;21.50;99.90;;;;;;5015319;28;20415;-76
2022/03/20 09:04:14;;;;;;;9.93;2.30;;;21.40;99.90;;;;;;5014371;28;20391;-81
2022/03/20 09:06:43;;;;;;;10.57;2.47;;;21.40;99.90;;;;;;5026767;28;20373;-85
2022/03/20 09:09:14;;;;;;;10.40;2.23;;;21.40;99.90;;;;;;5076258;28;20382;-89
2022/03/20 09:11:45;;;;;;;9.48;2.40;;;21.40;99.90;;;;;;5030084;28;20422;-85
2022/03/20 09:14:13;;;;;;;8.57;2.30;;;21.40;99.90;;;;;;5094381;28;20372;-79
2022/03/20 09:19:27;;;;;;;10.52;2.70;;;21.20;99.90;;;;;;5061226;28;20386;-86
2022/03/20 09:21:57;;;;;;;11.75;2.60;;;23.30;99.90;;;;;;5027649;28;20453;-79
2022/03/20 09:24:24;;;;;;;9.30;2.80;;;21.20;99.90;;;;;;5057667;28;20747;-85
2022/03/20 09:26:51;;;;;;;8.90;2.63;;;21.10;99.90;;;;;;5057717;28;20401;-76
2022/03/20 09:29:18;;;;;;;9.57;2.60;;;21.10;99.90;;;;;;5058489;28;20470;-76
2022/03/20 09:31:50;;;;;;;11.57;2.50;;;21.00;99.90;;;;;;5064556;28;20471;-89
2022/03/20 09:34:18;;;;;;;10.18;2.40;;;21.00;99.90;;;;;;5094728;28;20368;-87
2022/03/20 09:36:46;;;;;;;11.03;2.40;;;21.00;99.90;;;;;;5078351;28;20386;-78
2022/03/20 09:39:13;;;;;;;8.52;2.28;;;20.90;99.90;;;;;;5060382;28;20396;-84
2022/03/20 09:41:45;;;;;;;11.45;2.47;;;21.00;99.90;;;;;;5094482;28;20407;-78
2022/03/20 09:44:15;;;;;;;11.50;2.88;;;20.90;99.90;;;;;;5091326;28;20396;-87
2022/03/20 09:46:45;;;;;;;11.25;2.90;;;20.90;99.90;;;;;;5094276;28;20433;-86
2022/03/20 09:49:13;;;;;;;10.53;3.27;;;20.80;99.90;;;;;;5095930;28;20752;-82
2022/03/20 09:51:41;;;;;;;13.90;3.45;;;20.80;99.90;;;;;;5077554;28;20403;-83
2022/03/20 09:54:13;;;;;;;11.88;3.05;;;20.80;99.90;;;;;;5092504;28;20380;-87
2022/03/20 09:56:59;;;;;;;12.43;2.95;;;20.70;99.90;;;;;;5092797;28;20388;-87
2022/03/20 09:59:28;;;;;;;11.65;2.80;;;20.70;99.90;;;;;;5080877;28;20398;-77
2022/03/20 10:01:55;;;;;;;10.37;2.80;;;20.60;99.90;;;;;;5088131;28;20465;-86
2022/03/20 10:04:23;;;;;;;14.90;3.03;;;20.50;99.90;;;;;;5086049;28;20389;-83
2022/03/20 10:06:50;;;;;;;12.07;3.25;;;20.40;99.90;;;;;;5085962;28;20412;-83
2022/03/20 10:09:17;;;;;;;14.87;3.60;;;20.30;99.90;;;;;;5085211;28;20392;-89
2022/03/20 10:11:53;;;;;;;13.87;3.50;;;20.10;99.90;;;;;;5085006;28;20384;-89
2022/03/20 10:14:22;;;;;;;13.82;3.70;;;20.00;99.90;;;;;;5085501;28;20867;-82
2022/03/20 10:17:17;;;;;;;14.77;4.20;;;19.90;99.90;;;;;;5085166;28;20388;-80
2022/03/20 10:19:45;;;;;;;14.13;3.90;;;19.90;99.90;;;;;;5084541;28;20533;-82
2022/03/20 10:22:17;;;;;;;16.20;3.70;;;20.00;99.90;;;;;;5084570;28;20748;-82
2022/03/20 10:24:50;;;;;;;14.35;3.60;;;20.00;99.90;;;;;;5086444;28;20883;-81
2022/03/20 10:27:17;;;;;;;17.60;3.87;;;19.80;99.90;;;;;;5084046;28;20384;-78
2022/03/20 10:29:52;;;;;;;13.00;3.75;;;19.80;99.90;;;;;;5086075;28;20388;-82
2022/03/20 10:32:20;;;;;;;12.80;3.55;;;19.70;99.90;;;;;;5084851;28;20376;-75
2022/03/20 10:34:51;;;;;;;14.10;3.70;;;19.70;99.90;;;;;;5084107;28;20489;-82
2022/03/20 10:37:19;;;;;;;15.88;3.60;;;19.60;99.90;;;;;;5085226;28;20388;-86
2022/03/20 10:39:46;;;;;;;15.05;3.70;;;19.60;99.90;;;;;;5086458;28;20407;-95
2022/03/20 10:42:16;;;;;;;15.82;3.67;;;21.20;99.90;;;;;;5089719;28;20376;-87
2022/03/20 10:44:43;;;;;;;12.93;3.50;;;19.60;99.90;;;;;;5087471;28;20378;-86
2022/03/20 10:47:18;;;;;;;16.67;3.77;;;19.30;99.90;;;;;;5078905;28;20456;-86
2022/03/20 10:50:11;;;;;;;12.48;3.25;;;19.50;99.90;;;;;;5051915;28;20382;-88
2022/03/20 10:52:38;;;;;;;13.68;3.13;;;19.50;99.90;;;;;;5069117;28;20374;-80
2022/03/20 10:55:12;;;;;;;13.65;3.40;;;19.40;99.90;;;;;;5069636;28;20420;-86
2022/03/20 10:57:39;;;;;;;12.18;3.35;;;19.50;99.90;;;;;;5080642;28;20906;-88
2022/03/20 11:00:11;;;;;;;14.27;3.30;;;19.40;99.90;;;;;;5077696;28;20405;-80
2022/03/20 11:02:40;;;;;;;14.07;3.40;;;19.30;99.90;;;;;;5077858;28;20418;-86
2022/03/20 11:05:09;;;;;;;16.17;3.40;;;19.20;99.90;;;;;;5089279;28;20369;-86
2022/03/20 11:07:37;;;;;;;11.90;3.50;;;19.10;99.90;;;;;;5077190;28;20410;-82
2022/03/20 11:10:13;;;;;;;14.85;3.47;;;19.10;99.90;;;;;;5068157;28;20866;-86
2022/03/20 11:12:43;;;;;;;12.23;3.40;;;19.10;99.90;;;;;;5068571;28;20894;-87
2022/03/20 11:15:11;;;;;;;14.57;3.42;;;19.10;99.90;;;;;;5068995;28;20397;-85
2022/03/20 11:17:41;;;;;;;12.37;3.33;;;19.10;99.90;;;;;;5068750;28;20378;-82
2022/03/20 11:20:11;;;;;;;12.38;3.20;;;19.10;99.90;;;;;;5067534;28;20463;-87
2022/03/20 11:22:46;;;;;;;12.00;3.40;;;19.10;99.90;;;;;;5066158;28;20410;-81
2022/03/20 11:25:20;;;;;;;14.68;3.45;;;19.10;99.90;;;;;;5062900;28;20404;-85
2022/03/20 11:27:55;;;;;;;12.60;3.58;;;19.40;99.90;;;;;;5048560;28;20373;-77
2022/03/20 11:30:29;;;;;;;15.93;3.40;;;19.00;99.90;;;;;;5066941;28;20420;-83
2022/03/20 11:33:00;;;;;;;14.45;3.25;;;19.00;99.90;;;;;;5056418;28;20753;-77
2022/03/20 11:35:30;;;;;;;14.65;3.10;;;19.00;99.90;;;;;;5075903;28;20392;-86
2022/03/20 11:38:22;;;;;;;12.57;3.17;;;19.00;99.90;;;;;;5074747;28;20387;-77
2022/03/20 11:41:17;;;;;;;11.00;3.28;;;19.00;99.90;;;;;;5086348;28;20408;-77
2022/03/20 11:44:06;;;;;;;16.23;3.60;;;19.00;99.90;;;;;;5046923;28;20471;-86
2022/03/20 11:46:34;;;;;;;20.70;4.53;;;19.00;99.90;;;;;;5056785;28;20384;-86
2022/03/20 11:49:17;;;;;;;27.83;7.40;;;19.00;99.90;;;;;;5048493;28;20889;-84
2022/03/20 11:52:07;;;;;;;22.63;6.37;;;19.00;99.90;;;;;;5070068;28;20384;-80
2022/03/20 11:54:44;;;;;;;23.33;6.35;;;18.90;99.90;;;;;;5076240;28;20435;-82
2022/03/20 11:57:37;;;;;;;26.25;6.22;;;18.80;99.90;;;;;;5066032;28;20430;-81
2022/03/20 12:00:18;;;;;;;21.65;5.50;;;18.70;99.90;;;;;;5069374;28;20396;-77
2022/03/20 12:02:56;;;;;;;22.93;4.97;;;20.50;99.90;;;;;;5068077;28;20390;-80
2022/03/20 12:05:41;;;;;;;16.80;4.68;;;18.60;99.90;;;;;;5068871;28;20464;-86
2022/03/20 12:08:27;;;;;;;22.52;4.97;;;18.70;99.90;;;;;;5065771;28;20358;-86
2022/03/20 12:11:06;;;;;;;19.75;4.85;;;18.60;99.90;;;;;;5069445;28;20390;-87
2022/03/20 12:13:57;;;;;;;17.33;4.47;;;18.60;99.90;;;;;;5048813;28;20439;-86
2022/03/20 12:16:42;;;;;;;18.95;4.53;;;18.60;99.90;;;;;;5065055;28;20367;-86
2022/03/20 12:19:15;;;;;;;17.33;4.35;;;18.60;99.90;;;;;;5070924;28;20420;-79
2022/03/20 12:21:54;;;;;;;17.23;4.32;;;18.60;99.90;;;;;;5079660;28;20420;-80
2022/03/20 12:24:40;;;;;;;12.73;4.32;;;18.60;99.90;;;;;;5073723;28;20409;-85
2022/03/20 12:27:22;;;;;;;13.57;4.68;;;18.60;99.90;;;;;;5086083;28;20367;-85
2022/03/20 12:30:02;;;;;;;15.60;4.70;;;18.50;99.90;;;;;;5047718;28;20391;-77
2022/03/20 12:32:48;;;;;;;17.40;4.67;;;18.50;99.90;;;;;;5069804;28;20891;-85
2022/03/20 12:35:21;;;;;;;15.82;4.88;;;18.50;99.90;;;;;;5076914;28;20399;-85
2022/03/20 12:37:49;;;;;;;19.88;4.70;;;18.40;99.90;;;;;;5064683;28;20425;-84
2022/03/20 12:40:30;;;;;;;12.23;4.35;;;18.50;99.90;;;;;;5082962;28;20419;-78
2022/03/20 12:43:18;;;;;;;16.80;4.80;;;18.40;99.90;;;;;;5087106;28;20491;-81
2022/03/20 12:45:49;;;;;;;15.82;5.13;;;18.40;99.90;;;;;;5087542;28;20380;-78
2022/03/20 12:48:18;;;;;;;12.90;4.72;;;18.30;99.90;;;;;;5087147;28;20376;-87
2022/03/20 12:50:48;;;;;;;17.90;4.95;;;18.30;99.90;;;;;;5087531;28;21058;-81
2022/03/20 12:53:17;;;;;;;17.52;5.20;;;18.20;99.90;;;;;;5085893;28;20376;-85
2022/03/20 12:55:56;;;;;;;17.13;5.22;;;18.20;99.90;;;;;;5085711;28;20390;-86
2022/03/20 12:58:24;;;;;;;23.10;5.53;;;18.20;99.90;;;;;;5086322;28;20732;-77
2022/03/20 13:00:55;;;;;;;15.05;5.10;;;18.20;99.90;;;;;;5085639;28;20419;-83
2022/03/20 13:03:25;;;;;;;17.53;4.80;;;18.30;99.90;;;;;;5085655;28;20437;-80
2022/03/20 13:05:53;;;;;;;19.08;5.55;;;18.30;99.90;;;;;;5086569;28;20380;-78
2022/03/20 13:08:31;;;;;;;18.87;5.47;;;18.20;99.90;;;;;;5086059;28;20747;-83
2022/03/20 13:10:59;;;;;;;21.88;5.85;;;18.20;99.90;;;;;;5084867;28;20476;-75
2022/03/20 13:13:37;;;;;;;17.00;5.57;;;18.20;99.90;;;;;;5067324;28;20866;-77
2022/03/20 13:16:06;;;;;;;21.67;6.05;;;18.20;99.90;;;;;;5086486;28;20388;-77
2022/03/20 13:18:35;;;;;;;25.83;6.50;;;18.20;99.90;;;;;;5088735;28;20384;-80
2022/03/20 13:21:06;;;;;;;23.42;7.00;;;18.10;99.90;;;;;;5088721;28;20418;-76
2022/03/20 13:23:33;;;;;;;20.08;6.20;;;18.10;99.90;;;;;;5091604;28;20376;-80
2022/03/20 13:26:01;;;;;;;17.27;5.57;;;18.20;99.90;;;;;;5088122;28;20380;-80